logo
Search for airport 
image banner adimage banner adimage banner ad
image banner ad

KRUT - Rutland/Southern Vermont Rgnl

Located in Rutland, United States

ICAO - RUT, IATA - RUT

Data provided by Airmate  

General information

Coordinates: N43°31'47" W72°56'59"
Elevation is 787 feet MSL.
Magnetic variation is -15° East
View others Airports in Vermont

Operational data

Special qualification required
Current time UTC:
Current local time:
Weather
METAR: KRUT 201156Z AUTO 00000KT 10SM CLR 15/12 A3006 RMK AO2 SLP173 T01500117 10150 20117 51015 $
TAF: KRUT 201120Z 2012/2112 13004KT P6SM SKC FM201700 VRB04KT P6SM SCT060 FM210100 13008KT P6SM FEW060 FEW200 FM210500 14008KT P6SM SCT200
View NOTAMs / SUP AIP / TFR affecting this airport [VIEW]
Communications frequencies: [VIEW]

Runways:

RWY identifierQFULength (ft)Width (ft)SurfaceLDA (ft)
01359°5304100ASPH5003
19179°5304100ASPH5003
13119°316975ASPH
31299°316975ASPH

Airport contact information

Address: Rutland United States

Satellite view of KRUT